sensor_id;sensor_type;location;lat;lon;timestamp;pressure;altitude;pressure_sealevel;temperature;humidity
33161;BME280;19522;45.656;11.302;2023-04-26T00:01:21;97894.34;;;8.19;73.39
33161;BME280;19522;45.656;11.302;2023-04-26T00:03:47;97928.81;;;8.40;73.79
33161;BME280;19522;45.656;11.302;2023-04-26T00:06:13;97942.34;;;8.55;70.89
33161;BME280;19522;45.656;11.302;2023-04-26T00:08:40;97941.03;;;8.51;71.81
33161;BME280;19522;45.656;11.302;2023-04-26T00:11:07;97946.41;;;8.36;72.49
33161;BME280;19522;45.656;11.302;2023-04-26T00:13:32;97939.88;;;8.31;73.45
33161;BME280;19522;45.656;11.302;2023-04-26T00:15:58;97915.06;;;7.97;76.15
33161;BME280;19522;45.656;11.302;2023-04-26T00:18:23;97959.47;;;8.18;76.52
33161;BME280;19522;45.656;11.302;2023-04-26T00:20:49;97944.88;;;7.89;77.83
33161;BME280;19522;45.656;11.302;2023-04-26T00:23:14;97939.19;;;7.84;78.16
33161;BME280;19522;45.656;11.302;2023-04-26T00:25:40;97942.34;;;7.72;76.82
33161;BME280;19522;45.656;11.302;2023-04-26T00:28:06;97953.03;;;7.66;77.66
33161;BME280;19522;45.656;11.302;2023-04-26T00:30:31;97956.22;;;7.69;78.00
33161;BME280;19522;45.656;11.302;2023-04-26T00:32:58;97955.66;;;7.74;75.15
33161;BME280;19522;45.656;11.302;2023-04-26T00:35:24;97934.19;;;7.57;75.35
33161;BME280;19522;45.656;11.302;2023-04-26T00:37:49;97950.81;;;7.69;74.27
33161;BME280;19522;45.656;11.302;2023-04-26T00:40:15;97951.34;;;7.64;75.01
33161;BME280;19522;45.656;11.302;2023-04-26T00:42:41;97924.88;;;7.37;75.81
33161;BME280;19522;45.656;11.302;2023-04-26T00:45:07;97962.69;;;7.60;76.22
33161;BME280;19522;45.656;11.302;2023-04-26T00:47:33;97950.94;;;7.53;77.70
33161;BME280;19522;45.656;11.302;2023-04-26T00:49:59;97951.91;;;7.60;78.30
33161;BME280;19522;45.656;11.302;2023-04-26T00:52:26;97952.19;;;7.65;77.17
33161;BME280;19522;45.656;11.302;2023-04-26T00:54:53;97885.94;;;7.31;76.42
33161;BME280;19522;45.656;11.302;2023-04-26T00:57:19;97917.19;;;7.48;75.92
33161;BME280;19522;45.656;11.302;2023-04-26T00:59:45;97949.97;;;7.69;74.96
33161;BME280;19522;45.656;11.302;2023-04-26T01:02:12;97947.38;;;7.52;75.08
33161;BME280;19522;45.656;11.302;2023-04-26T01:04:37;97942.66;;;7.54;74.60
33161;BME280;19522;45.656;11.302;2023-04-26T01:07:06;97899.63;;;7.06;75.42
33161;BME280;19522;45.656;11.302;2023-04-26T01:09:31;97913.06;;;7.14;76.35
33161;BME280;19522;45.656;11.302;2023-04-26T01:11:57;97907.34;;;7.09;76.92
33161;BME280;19522;45.656;11.302;2023-04-26T01:14:25;97949.06;;;7.30;77.45
33161;BME280;19522;45.656;11.302;2023-04-26T01:16:51;97950.75;;;7.31;75.82
33161;BME280;19522;45.656;11.302;2023-04-26T01:19:17;97951.44;;;7.33;73.65
33161;BME280;19522;45.656;11.302;2023-04-26T01:21:43;97938.28;;;7.30;72.31
33161;BME280;19522;45.656;11.302;2023-04-26T01:24:10;97947.44;;;7.44;72.33
33161;BME280;19522;45.656;11.302;2023-04-26T01:26:36;97948.47;;;7.43;72.19
33161;BME280;19522;45.656;11.302;2023-04-26T01:29:14;97958.97;;;7.61;73.11
33161;BME280;19522;45.656;11.302;2023-04-26T01:31:40;97956.16;;;7.54;73.62
33161;BME280;19522;45.656;11.302;2023-04-26T01:34:06;97957.91;;;7.47;74.15
33161;BME280;19522;45.656;11.302;2023-04-26T01:36:31;97935.22;;;7.33;72.25
33161;BME280;19522;45.656;11.302;2023-04-26T01:38:57;97915.53;;;7.24;71.72
33161;BME280;19522;45.656;11.302;2023-04-26T01:41:22;97955.28;;;7.39;72.27
33161;BME280;19522;45.656;11.302;2023-04-26T01:43:48;97947.03;;;7.32;70.90
33161;BME280;19522;45.656;11.302;2023-04-26T01:46:14;97972.63;;;7.44;71.32
33161;BME280;19522;45.656;11.302;2023-04-26T01:48:39;97948.66;;;7.41;71.58
33161;BME280;19522;45.656;11.302;2023-04-26T01:51:05;97972.44;;;7.46;72.06
33161;BME280;19522;45.656;11.302;2023-04-26T01:53:30;97964.06;;;7.56;72.14
33161;BME280;19522;45.656;11.302;2023-04-26T01:55:59;97934.81;;;7.21;71.83
33161;BME280;19522;45.656;11.302;2023-04-26T01:58:25;97980.34;;;7.47;72.63
33161;BME280;19522;45.656;11.302;2023-04-26T02:00:51;97992.38;;;7.45;72.82
33161;BME280;19522;45.656;11.302;2023-04-26T02:03:16;97975.78;;;7.25;74.41
33161;BME280;19522;45.656;11.302;2023-04-26T02:05:42;97984.09;;;7.15;74.94
33161;BME280;19522;45.656;11.302;2023-04-26T02:08:07;97995.41;;;7.18;76.07
33161;BME280;19522;45.656;11.302;2023-04-26T02:10:33;97976.53;;;7.10;76.12
33161;BME280;19522;45.656;11.302;2023-04-26T02:12:58;97994.44;;;7.11;75.89
33161;BME280;19522;45.656;11.302;2023-04-26T02:15:24;97958.41;;;6.96;75.70
33161;BME280;19522;45.656;11.302;2023-04-26T02:17:49;97981.59;;;7.13;75.26
33161;BME280;19522;45.656;11.302;2023-04-26T02:20:15;97992.13;;;7.00;75.82
33161;BME280;19522;45.656;11.302;2023-04-26T02:22:40;97991.44;;;6.98;76.33
33161;BME280;19522;45.656;11.302;2023-04-26T02:25:06;97964.59;;;6.73;76.69
33161;BME280;19522;45.656;11.302;2023-04-26T02:27:32;97998.09;;;6.87;76.82
33161;BME280;19522;45.656;11.302;2023-04-26T02:29:58;98002.41;;;6.65;76.96
33161;BME280;19522;45.656;11.302;2023-04-26T02:32:23;97978.03;;;6.42;77.08
33161;BME280;19522;45.656;11.302;2023-04-26T02:34:49;98001.44;;;6.49;77.97
33161;BME280;19522;45.656;11.302;2023-04-26T02:37:14;98003.47;;;6.47;78.81
33161;BME280;19522;45.656;11.302;2023-04-26T02:39:40;97993.06;;;6.36;79.31
33161;BME280;19522;45.656;11.302;2023-04-26T02:42:09;97962.91;;;6.16;79.99
33161;BME280;19522;45.656;11.302;2023-04-26T02:44:35;98007.19;;;6.46;79.94
33161;BME280;19522;45.656;11.302;2023-04-26T02:47:01;97962.41;;;6.12;80.95
33161;BME280;19522;45.656;11.302;2023-04-26T02:49:27;98003.78;;;6.52;80.05
33161;BME280;19522;45.656;11.302;2023-04-26T02:51:53;97971.47;;;6.36;79.70
33161;BME280;19522;45.656;11.302;2023-04-26T02:54:18;97990.34;;;6.44;79.88
33161;BME280;19522;45.656;11.302;2023-04-26T02:56:44;97968.63;;;6.29;79.50
33161;BME280;19522;45.656;11.302;2023-04-26T02:59:10;97994.69;;;6.53;79.01
33161;BME280;19522;45.656;11.302;2023-04-26T03:01:35;98015.78;;;6.50;79.31
33161;BME280;19522;45.656;11.302;2023-04-26T03:04:01;98005.69;;;6.35;79.60
33161;BME280;19522;45.656;11.302;2023-04-26T03:06:26;97967.16;;;6.10;79.66
33161;BME280;19522;45.656;11.302;2023-04-26T03:08:52;98001.66;;;6.31;79.51
33161;BME280;19522;45.656;11.302;2023-04-26T03:11:18;98002.66;;;6.30;80.11
33161;BME280;19522;45.656;11.302;2023-04-26T03:13:43;97998.63;;;6.26;80.13
33161;BME280;19522;45.656;11.302;2023-04-26T03:16:09;97983.50;;;6.08;80.79
33161;BME280;19522;45.656;11.302;2023-04-26T03:18:35;97974.72;;;5.90;81.61
33161;BME280;19522;45.656;11.302;2023-04-26T03:21:01;97977.78;;;5.95;81.97
33161;BME280;19522;45.656;11.302;2023-04-26T03:23:28;97995.97;;;6.10;81.79
33161;BME280;19522;45.656;11.302;2023-04-26T03:25:53;97998.84;;;5.91;82.82
33161;BME280;19522;45.656;11.302;2023-04-26T03:28:19;97977.09;;;5.52;84.28
33161;BME280;19522;45.656;11.302;2023-04-26T03:30:45;97983.00;;;5.47;84.61
33161;BME280;19522;45.656;11.302;2023-04-26T03:33:11;98005.91;;;5.59;84.73
33161;BME280;19522;45.656;11.302;2023-04-26T03:35:37;98005.91;;;5.59;84.16
33161;BME280;19522;45.656;11.302;2023-04-26T03:38:03;97999.50;;;5.52;84.06
33161;BME280;19522;45.656;11.302;2023-04-26T03:40:28;97981.31;;;5.46;83.69
33161;BME280;19522;45.656;11.302;2023-04-26T03:42:54;98008.91;;;5.65;83.41
33161;BME280;19522;45.656;11.302;2023-04-26T03:45:20;98013.16;;;5.67;83.93
33161;BME280;19522;45.656;11.302;2023-04-26T03:47:45;98016.00;;;5.74;82.77
33161;BME280;19522;45.656;11.302;2023-04-26T03:50:11;98016.00;;;5.66;83.32
33161;BME280;19522;45.656;11.302;2023-04-26T03:52:36;98013.63;;;5.46;83.89
33161;BME280;19522;45.656;11.302;2023-04-26T03:55:02;97998.63;;;5.19;84.47
33161;BME280;19522;45.656;11.302;2023-04-26T03:57:27;98000.31;;;5.28;84.27
33161;BME280;19522;45.656;11.302;2023-04-26T03:59:53;98024.75;;;5.43;83.91
33161;BME280;19522;45.656;11.302;2023-04-26T04:02:18;98023.56;;;5.45;83.73
33161;BME280;19522;45.656;11.302;2023-04-26T04:04:44;98010.41;;;5.42;80.88
33161;BME280;19522;45.656;11.302;2023-04-26T04:07:09;98018.19;;;5.45;80.32
33161;BME280;19522;45.656;11.302;2023-04-26T04:09:35;98026.78;;;5.66;80.28
33161;BME280;19522;45.656;11.302;2023-04-26T04:12:01;98039.41;;;5.73;80.49
33161;BME280;19522;45.656;11.302;2023-04-26T04:14:27;98029.72;;;5.13;82.78
33161;BME280;19522;45.656;11.302;2023-04-26T04:16:52;98021.97;;;5.10;83.68
33161;BME280;19522;45.656;11.302;2023-04-26T04:19:18;98043.34;;;5.20;83.64
33161;BME280;19522;45.656;11.302;2023-04-26T04:21:43;98029.34;;;5.08;83.17
33161;BME280;19522;45.656;11.302;2023-04-26T04:24:09;98039.22;;;5.34;81.39
33161;BME280;19522;45.656;11.302;2023-04-26T04:26:35;98064.19;;;5.77;80.08
33161;BME280;19522;45.656;11.302;2023-04-26T04:29:01;98062.97;;;5.71;79.95
33161;BME280;19522;45.656;11.302;2023-04-26T04:31:34;98062.47;;;5.68;80.85
33161;BME280;19522;45.656;11.302;2023-04-26T04:34:00;98071.38;;;5.52;81.50
33161;BME280;19522;45.656;11.302;2023-04-26T04:36:25;98036.13;;;5.20;82.64
33161;BME280;19522;45.656;11.302;2023-04-26T04:38:51;98079.31;;;5.70;81.06
33161;BME280;19522;45.656;11.302;2023-04-26T04:41:17;98067.69;;;5.77;79.68
33161;BME280;19522;45.656;11.302;2023-04-26T04:43:44;98075.97;;;5.76;80.56
33161;BME280;19522;45.656;11.302;2023-04-26T04:46:10;98070.06;;;5.64;81.79
33161;BME280;19522;45.656;11.302;2023-04-26T04:48:36;98077.94;;;5.57;82.70
33161;BME280;19522;45.656;11.302;2023-04-26T04:51:03;98092.78;;;5.61;83.50
33161;BME280;19522;45.656;11.302;2023-04-26T04:53:29;98096.00;;;5.73;82.89
33161;BME280;19522;45.656;11.302;2023-04-26T04:55:54;98067.16;;;5.41;82.68
33161;BME280;19522;45.656;11.302;2023-04-26T04:58:21;98067.25;;;5.14;84.53
33161;BME280;19522;45.656;11.302;2023-04-26T05:00:47;98072.31;;;5.18;85.49
33161;BME280;19522;45.656;11.302;2023-04-26T05:03:14;98109.13;;;5.17;86.82
33161;BME280;19522;45.656;11.302;2023-04-26T05:05:39;98107.34;;;5.26;86.47
33161;BME280;19522;45.656;11.302;2023-04-26T05:08:05;98111.06;;;5.33;85.91
33161;BME280;19522;45.656;11.302;2023-04-26T05:10:32;98121.81;;;5.33;86.81
33161;BME280;19522;45.656;11.302;2023-04-26T05:12:59;98119.63;;;5.37;85.84
33161;BME280;19522;45.656;11.302;2023-04-26T05:15:24;98120.31;;;5.30;86.36
33161;BME280;19522;45.656;11.302;2023-04-26T05:17:50;98119.63;;;5.28;86.68
33161;BME280;19522;45.656;11.302;2023-04-26T05:20:15;98071.47;;;5.25;86.37
33161;BME280;19522;45.656;11.302;2023-04-26T05:22:41;98129.16;;;5.66;85.88
33161;BME280;19522;45.656;11.302;2023-04-26T05:25:07;98111.09;;;5.50;85.93
33161;BME280;19522;45.656;11.302;2023-04-26T05:27:34;98131.53;;;5.69;85.75
33161;BME280;19522;45.656;11.302;2023-04-26T05:30:01;98136.59;;;5.80;84.71
33161;BME280;19522;45.656;11.302;2023-04-26T05:32:27;98108.78;;;5.63;84.62
33161;BME280;19522;45.656;11.302;2023-04-26T05:34:53;98136.59;;;5.80;85.59
33161;BME280;19522;45.656;11.302;2023-04-26T05:37:18;98085.53;;;5.54;85.28
33161;BME280;19522;45.656;11.302;2023-04-26T05:39:44;98128.66;;;5.70;85.45
33161;BME280;19522;45.656;11.302;2023-04-26T05:42:09;98148.91;;;5.91;84.59
33161;BME280;19522;45.656;11.302;2023-04-26T05:44:34;98106.41;;;5.60;84.08
33161;BME280;19522;45.656;11.302;2023-04-26T05:47:00;98126.66;;;5.72;84.50
33161;BME280;19522;45.656;11.302;2023-04-26T05:49:26;98152.97;;;5.95;83.39
33161;BME280;19522;45.656;11.302;2023-04-26T05:51:51;98158.06;;;6.06;81.47
33161;BME280;19522;45.656;11.302;2023-04-26T05:54:16;98141.03;;;6.14;79.98
33161;BME280;19522;45.656;11.302;2023-04-26T05:56:42;98129.94;;;6.26;79.47
33161;BME280;19522;45.656;11.302;2023-04-26T05:59:07;98136.50;;;6.39;78.75
33161;BME280;19522;45.656;11.302;2023-04-26T06:01:33;98146.44;;;6.55;80.17
33161;BME280;19522;45.656;11.302;2023-04-26T06:03:59;98145.59;;;6.55;77.88
33161;BME280;19522;45.656;11.302;2023-04-26T06:06:25;98167.19;;;6.63;78.50
33161;BME280;19522;45.656;11.302;2023-04-26T06:08:52;98154.03;;;6.60;79.11
33161;BME280;19522;45.656;11.302;2023-04-26T06:11:18;98138.66;;;6.61;79.08
33161;BME280;19522;45.656;11.302;2023-04-26T06:13:43;98166.47;;;6.86;79.01
33161;BME280;19522;45.656;11.302;2023-04-26T06:16:09;98168.13;;;6.95;76.71
33161;BME280;19522;45.656;11.302;2023-04-26T06:18:34;98168.59;;;7.07;76.17
33161;BME280;19522;45.656;11.302;2023-04-26T06:21:00;98168.41;;;7.25;75.50
33161;BME280;19522;45.656;11.302;2023-04-26T06:23:26;98156.69;;;7.41;73.77
33161;BME280;19522;45.656;11.302;2023-04-26T06:25:51;98160.47;;;7.63;71.15
33161;BME280;19522;45.656;11.302;2023-04-26T06:28:16;98077.13;;;7.44;69.04
33161;BME280;19522;45.656;11.302;2023-04-26T06:30:42;98106.69;;;7.77;68.57
33161;BME280;19522;45.656;11.302;2023-04-26T06:33:07;98161.97;;;8.44;67.94
33161;BME280;19522;45.656;11.302;2023-04-26T06:35:39;98165.31;;;8.93;67.81
33161;BME280;19522;45.656;11.302;2023-04-26T06:38:05;98101.50;;;9.05;65.34
33161;BME280;19522;45.656;11.302;2023-04-26T06:40:30;98162.81;;;9.88;63.26
33161;BME280;19522;45.656;11.302;2023-04-26T06:42:56;98140.31;;;10.31;60.73
33161;BME280;19522;45.656;11.302;2023-04-26T06:45:22;98155.06;;;10.93;59.65
33161;BME280;19522;45.656;11.302;2023-04-26T06:47:50;98169.38;;;11.44;57.32
33161;BME280;19522;45.656;11.302;2023-04-26T06:50:16;98162.25;;;11.84;55.27
33161;BME280;19522;45.656;11.302;2023-04-26T06:52:42;98170.31;;;12.20;52.90
33161;BME280;19522;45.656;11.302;2023-04-26T06:55:08;98162.84;;;12.35;50.70
33161;BME280;19522;45.656;11.302;2023-04-26T06:57:34;98141.25;;;12.60;51.76
33161;BME280;19522;45.656;11.302;2023-04-26T06:59:59;98171.63;;;13.11;51.39
33161;BME280;19522;45.656;11.302;2023-04-26T07:02:25;98139.16;;;13.16;49.90
33161;BME280;19522;45.656;11.302;2023-04-26T07:04:51;98175.13;;;13.65;46.16
33161;BME280;19522;45.656;11.302;2023-04-26T07:07:16;98174.44;;;13.83;43.38
33161;BME280;19522;45.656;11.302;2023-04-26T07:09:43;98175.03;;;13.85;45.05
33161;BME280;19522;45.656;11.302;2023-04-26T07:12:11;98150.03;;;13.89;44.07
33161;BME280;19522;45.656;11.302;2023-04-26T07:14:37;98174.34;;;13.45;45.24
33161;BME280;19522;45.656;11.302;2023-04-26T07:17:08;98182.50;;;13.58;46.17
33161;BME280;19522;45.656;11.302;2023-04-26T07:19:34;98175.25;;;13.91;46.49
33161;BME280;19522;45.656;11.302;2023-04-26T07:22:00;98160.00;;;14.15;46.17
33161;BME280;19522;45.656;11.302;2023-04-26T07:24:26;98149.03;;;13.76;45.32
33161;BME280;19522;45.656;11.302;2023-04-26T07:26:51;98181.16;;;14.26;45.65
33161;BME280;19522;45.656;11.302;2023-04-26T07:29:17;98174.47;;;14.54;46.09
33161;BME280;19522;45.656;11.302;2023-04-26T07:31:43;98172.28;;;14.63;46.62
33161;BME280;19522;45.656;11.302;2023-04-26T07:34:09;98185.06;;;14.76;44.94
33161;BME280;19522;45.656;11.302;2023-04-26T07:36:34;98177.84;;;15.07;43.63
33161;BME280;19522;45.656;11.302;2023-04-26T07:39:00;98178.47;;;15.09;43.44
33161;BME280;19522;45.656;11.302;2023-04-26T07:41:26;98160.13;;;15.35;43.46
33161;BME280;19522;45.656;11.302;2023-04-26T07:43:51;98122.91;;;15.34;42.73
33161;BME280;19522;45.656;11.302;2023-04-26T07:46:17;98187.66;;;15.77;40.99
33161;BME280;19522;45.656;11.302;2023-04-26T07:48:42;98186.69;;;16.09;42.49
33161;BME280;19522;45.656;11.302;2023-04-26T07:51:11;98160.97;;;16.10;42.08
33161;BME280;19522;45.656;11.302;2023-04-26T07:53:37;98187.44;;;15.97;41.16
33161;BME280;19522;45.656;11.302;2023-04-26T07:56:04;98182.16;;;15.84;40.92
33161;BME280;19522;45.656;11.302;2023-04-26T07:58:30;98170.47;;;15.33;40.68
33161;BME280;19522;45.656;11.302;2023-04-26T08:00:57;98198.97;;;15.00;44.71
33161;BME280;19522;45.656;11.302;2023-04-26T08:03:23;98175.28;;;14.55;43.13
33161;BME280;19522;45.656;11.302;2023-04-26T08:05:49;98182.25;;;14.83;44.58
33161;BME280;19522;45.656;11.302;2023-04-26T08:08:15;98190.66;;;15.13;43.02
33161;BME280;19522;45.656;11.302;2023-04-26T08:10:41;98171.19;;;15.03;43.70
33161;BME280;19522;45.656;11.302;2023-04-26T08:13:07;98184.16;;;15.33;43.17
33161;BME280;19522;45.656;11.302;2023-04-26T08:15:32;98138.31;;;15.09;41.24
33161;BME280;19522;45.656;11.302;2023-04-26T08:17:58;98189.78;;;15.75;41.43
33161;BME280;19522;45.656;11.302;2023-04-26T08:20:23;98188.72;;;15.39;40.38
33161;BME280;19522;45.656;11.302;2023-04-26T08:22:49;98161.72;;;15.61;42.14
33161;BME280;19522;45.656;11.302;2023-04-26T08:25:19;98172.47;;;15.81;40.52
33161;BME280;19522;45.656;11.302;2023-04-26T08:27:44;98175.50;;;16.10;40.58
33161;BME280;19522;45.656;11.302;2023-04-26T08:30:10;98188.31;;;16.59;39.69
33161;BME280;19522;45.656;11.302;2023-04-26T08:32:36;98152.81;;;16.76;38.22
33161;BME280;19522;45.656;11.302;2023-04-26T08:35:02;98130.84;;;16.52;38.05
33161;BME280;19522;45.656;11.302;2023-04-26T08:37:28;98178.53;;;17.17;38.37
33161;BME280;19522;45.656;11.302;2023-04-26T08:39:53;98145.53;;;16.58;37.33
33161;BME280;19522;45.656;11.302;2023-04-26T08:42:19;98186.59;;;16.15;39.59
33161;BME280;19522;45.656;11.302;2023-04-26T08:44:48;98189.41;;;15.71;41.31
33161;BME280;19522;45.656;11.302;2023-04-26T08:47:21;98135.97;;;15.87;40.98
33161;BME280;19522;45.656;11.302;2023-04-26T08:49:52;98180.94;;;16.29;40.33
33161;BME280;19522;45.656;11.302;2023-04-26T08:52:27;98148.75;;;15.56;39.73
33161;BME280;19522;45.656;11.302;2023-04-26T08:54:53;98191.66;;;16.00;39.17
33161;BME280;19522;45.656;11.302;2023-04-26T08:57:20;98178.47;;;16.09;39.56
33161;BME280;19522;45.656;11.302;2023-04-26T08:59:46;98187.41;;;16.34;39.24
33161;BME280;19522;45.656;11.302;2023-04-26T09:02:22;98180.47;;;16.74;39.00
33161;BME280;19522;45.656;11.302;2023-04-26T09:04:49;98158.53;;;16.01;38.88
33161;BME280;19522;45.656;11.302;2023-04-26T09:07:29;98194.97;;;16.51;38.67
33161;BME280;19522;45.656;11.302;2023-04-26T09:09:57;98196.84;;;16.20;39.34
33161;BME280;19522;45.656;11.302;2023-04-26T09:12:23;98191.00;;;16.77;39.11
33161;BME280;19522;45.656;11.302;2023-04-26T09:14:48;98175.44;;;17.02;39.34
33161;BME280;19522;45.656;11.302;2023-04-26T09:17:27;98145.69;;;16.32;37.69
33161;BME280;19522;45.656;11.302;2023-04-26T09:19:53;98174.47;;;16.96;38.75
33161;BME280;19522;45.656;11.302;2023-04-26T09:22:35;98177.22;;;16.96;36.46
33161;BME280;19522;45.656;11.302;2023-04-26T09:25:02;98187.13;;;16.97;38.17
33161;BME280;19522;45.656;11.302;2023-04-26T09:27:36;98164.81;;;17.05;37.16
33161;BME280;19522;45.656;11.302;2023-04-26T09:30:10;98197.13;;;16.61;38.44
33161;BME280;19522;45.656;11.302;2023-04-26T09:40:23;98188.31;;;15.98;42.13
33161;BME280;19522;45.656;11.302;2023-04-26T09:42:56;98149.09;;;15.97;42.52
33161;BME280;19522;45.656;11.302;2023-04-26T09:45:22;98142.47;;;16.35;43.34
33161;BME280;19522;45.656;11.302;2023-04-26T09:47:48;98169.28;;;16.33;42.32
33161;BME280;19522;45.656;11.302;2023-04-26T09:50:25;98184.19;;;16.38;45.15
33161;BME280;19522;45.656;11.302;2023-04-26T09:52:51;98173.09;;;16.32;44.39
33161;BME280;19522;45.656;11.302;2023-04-26T09:55:27;98177.53;;;16.45;45.03
33161;BME280;19522;45.656;11.302;2023-04-26T09:57:53;98178.28;;;16.52;43.68
33161;BME280;19522;45.656;11.302;2023-04-26T10:00:20;98168.28;;;16.58;42.99
33161;BME280;19522;45.656;11.302;2023-04-26T10:02:46;98172.16;;;16.81;43.86
33161;BME280;19522;45.656;11.302;2023-04-26T10:05:11;98141.94;;;16.57;40.64
33161;BME280;19522;45.656;11.302;2023-04-26T10:07:38;98172.97;;;16.70;42.22
33161;BME280;19522;45.656;11.302;2023-04-26T10:10:06;98119.66;;;16.54;40.63
33161;BME280;19522;45.656;11.302;2023-04-26T10:12:33;98171.34;;;16.50;40.22
33161;BME280;19522;45.656;11.302;2023-04-26T10:14:58;98121.31;;;16.43;41.08
33161;BME280;19522;45.656;11.302;2023-04-26T10:17:24;98143.25;;;16.55;40.76
33161;BME280;19522;45.656;11.302;2023-04-26T10:19:54;98146.63;;;16.80;41.91
33161;BME280;19522;45.656;11.302;2023-04-26T10:22:24;98156.25;;;16.59;42.61
33161;BME280;19522;45.656;11.302;2023-04-26T10:24:53;98154.75;;;16.87;41.39
33161;BME280;19522;45.656;11.302;2023-04-26T10:30:10;98142.56;;;16.71;41.09
33161;BME280;19522;45.656;11.302;2023-04-26T10:35:21;98107.44;;;16.26;41.64
33161;BME280;19522;45.656;11.302;2023-04-26T10:40:30;98144.13;;;16.91;42.68
33161;BME280;19522;45.656;11.302;2023-04-26T10:45:37;98149.25;;;16.75;40.71
33161;BME280;19522;45.656;11.302;2023-04-26T10:58:48;98098.22;;;16.62;40.93
33161;BME280;19522;45.656;11.302;2023-04-26T11:04:05;98120.75;;;17.48;44.14
33161;BME280;19522;45.656;11.302;2023-04-26T11:06:47;98124.00;;;17.44;41.31
33161;BME280;19522;45.656;11.302;2023-04-26T11:09:39;98091.56;;;17.29;40.63
33161;BME280;19522;45.656;11.302;2023-04-26T11:12:07;98114.59;;;17.05;42.83
33161;BME280;19522;45.656;11.302;2023-04-26T11:14:35;98090.53;;;16.95;42.34
33161;BME280;19522;45.656;11.302;2023-04-26T11:17:10;98120.59;;;17.02;42.15
33161;BME280;19522;45.656;11.302;2023-04-26T11:19:36;98108.88;;;16.94;43.75
33161;BME280;19522;45.656;11.302;2023-04-26T11:22:02;98112.22;;;16.96;43.40
33161;BME280;19522;45.656;11.302;2023-04-26T11:24:31;98107.16;;;16.81;43.79
33161;BME280;19522;45.656;11.302;2023-04-26T11:26:57;98090.31;;;16.42;44.05
33161;BME280;19522;45.656;11.302;2023-04-26T11:29:23;98077.03;;;16.27;44.23
33161;BME280;19522;45.656;11.302;2023-04-26T11:31:56;98099.13;;;16.44;43.74
33161;BME280;19522;45.656;11.302;2023-04-26T11:34:30;98076.72;;;15.93;45.63
33161;BME280;19522;45.656;11.302;2023-04-26T11:36:56;98101.84;;;16.02;46.32
33161;BME280;19522;45.656;11.302;2023-04-26T11:39:21;98106.53;;;15.83;47.01
33161;BME280;19522;45.656;11.302;2023-04-26T11:41:47;98105.44;;;16.02;47.26
33161;BME280;19522;45.656;11.302;2023-04-26T11:44:17;98086.97;;;15.98;47.23
33161;BME280;19522;45.656;11.302;2023-04-26T11:46:44;98080.75;;;15.91;48.82
33161;BME280;19522;45.656;11.302;2023-04-26T11:49:10;98106.78;;;16.12;49.39
33161;BME280;19522;45.656;11.302;2023-04-26T11:51:36;98087.97;;;16.15;47.19
33161;BME280;19522;45.656;11.302;2023-04-26T11:54:02;98111.63;;;15.98;46.17
33161;BME280;19522;45.656;11.302;2023-04-26T11:56:28;98095.91;;;16.05;47.52
33161;BME280;19522;45.656;11.302;2023-04-26T11:58:53;98091.59;;;15.97;48.13
33161;BME280;19522;45.656;11.302;2023-04-26T12:01:26;98097.69;;;15.99;47.98
33161;BME280;19522;45.656;11.302;2023-04-26T12:03:57;98099.19;;;16.14;48.59
33161;BME280;19522;45.656;11.302;2023-04-26T12:06:30;98105.44;;;16.02;47.38
33161;BME280;19522;45.656;11.302;2023-04-26T12:09:01;98101.88;;;15.83;47.32
33161;BME280;19522;45.656;11.302;2023-04-26T12:11:29;98058.47;;;15.68;47.81
33161;BME280;19522;45.656;11.302;2023-04-26T12:13:57;98094.22;;;15.73;46.33
33161;BME280;19522;45.656;11.302;2023-04-26T12:16:22;98093.00;;;15.69;47.69
33161;BME280;19522;45.656;11.302;2023-04-26T12:18:51;98097.47;;;16.01;47.57
33161;BME280;19522;45.656;11.302;2023-04-26T12:21:17;98097.47;;;16.01;48.39
33161;BME280;19522;45.656;11.302;2023-04-26T12:23:43;98079.69;;;15.92;48.38
33161;BME280;19522;45.656;11.302;2023-04-26T12:26:12;98103.09;;;16.18;46.86
33161;BME280;19522;45.656;11.302;2023-04-26T12:28:37;98109.78;;;16.10;47.71
33161;BME280;19522;45.656;11.302;2023-04-26T12:31:03;98093.97;;;16.24;48.09
33161;BME280;19522;45.656;11.302;2023-04-26T12:33:29;98095.22;;;16.52;47.14
33161;BME280;19522;45.656;11.302;2023-04-26T12:35:55;98101.88;;;16.56;47.64
33161;BME280;19522;45.656;11.302;2023-04-26T12:38:22;98078.78;;;16.64;46.77
33161;BME280;19522;45.656;11.302;2023-04-26T12:40:47;98103.38;;;16.94;45.79
33161;BME280;19522;45.656;11.302;2023-04-26T12:43:13;98098.25;;;17.46;46.21
33161;BME280;19522;45.656;11.302;2023-04-26T12:45:40;98089.22;;;17.62;45.90
33161;BME280;19522;45.656;11.302;2023-04-26T12:48:05;98080.97;;;16.97;43.60
33161;BME280;19522;45.656;11.302;2023-04-26T12:50:31;98040.50;;;16.69;46.39
33161;BME280;19522;45.656;11.302;2023-04-26T12:52:56;98102.41;;;16.89;46.64
33161;BME280;19522;45.656;11.302;2023-04-26T12:55:22;98097.28;;;16.80;47.24
33161;BME280;19522;45.656;11.302;2023-04-26T12:57:47;98097.56;;;17.15;47.88
33161;BME280;19522;45.656;11.302;2023-04-26T13:00:14;98093.88;;;17.62;45.98
33161;BME280;19522;45.656;11.302;2023-04-26T13:02:41;98082.91;;;17.90;46.31
33161;BME280;19522;45.656;11.302;2023-04-26T13:05:07;98087.50;;;18.14;45.20
33161;BME280;19522;45.656;11.302;2023-04-26T13:07:34;98061.28;;;18.06;43.14
33161;BME280;19522;45.656;11.302;2023-04-26T13:10:00;98061.03;;;18.08;43.63
33161;BME280;19522;45.656;11.302;2023-04-26T13:12:27;98086.56;;;18.37;42.67
33161;BME280;19522;45.656;11.302;2023-04-26T13:14:53;98093.41;;;18.68;42.01
33161;BME280;19522;45.656;11.302;2023-04-26T13:17:23;98080.25;;;18.53;42.24
33161;BME280;19522;45.656;11.302;2023-04-26T13:19:50;98087.38;;;18.89;40.71
33161;BME280;19522;45.656;11.302;2023-04-26T13:22:22;98079.63;;;18.85;41.16
33161;BME280;19522;45.656;11.302;2023-04-26T13:24:47;98059.78;;;18.32;42.29